sensor_id;sensor_type;location;lat;lon;timestamp;P1;durP1;ratioP1;P2;durP2;ratioP2
35330;SDS011;21441;52.190;20.910;2023-05-07T00:01:42;5.88;;;3.50;;
35330;SDS011;21441;52.190;20.910;2023-05-07T00:04:09;5.15;;;3.05;;
35330;SDS011;21441;52.190;20.910;2023-05-07T00:06:38;5.28;;;3.75;;
35330;SDS011;21441;52.190;20.910;2023-05-07T00:09:05;5.43;;;3.05;;
35330;SDS011;21441;52.190;20.910;2023-05-07T00:11:33;5.25;;;3.33;;
35330;SDS011;21441;52.190;20.910;2023-05-07T00:14:00;4.13;;;3.13;;
35330;SDS011;21441;52.190;20.910;2023-05-07T00:16:27;4.82;;;3.63;;
35330;SDS011;21441;52.190;20.910;2023-05-07T00:18:54;5.22;;;3.75;;
35330;SDS011;21441;52.190;20.910;2023-05-07T00:21:21;4.60;;;3.85;;
35330;SDS011;21441;52.190;20.910;2023-05-07T00:23:53;4.60;;;3.25;;
35330;SDS011;21441;52.190;20.910;2023-05-07T00:26:20;4.90;;;3.50;;
35330;SDS011;21441;52.190;20.910;2023-05-07T00:28:47;5.88;;;3.80;;
35330;SDS011;21441;52.190;20.910;2023-05-07T00:31:14;4.57;;;3.28;;
35330;SDS011;21441;52.190;20.910;2023-05-07T00:33:41;5.28;;;3.35;;
35330;SDS011;21441;52.190;20.910;2023-05-07T00:36:08;5.45;;;3.40;;
35330;SDS011;21441;52.190;20.910;2023-05-07T00:38:36;5.45;;;3.35;;
35330;SDS011;21441;52.190;20.910;2023-05-07T00:41:04;5.97;;;3.50;;
35330;SDS011;21441;52.190;20.910;2023-05-07T00:43:31;4.57;;;3.15;;
35330;SDS011;21441;52.190;20.910;2023-05-07T00:45:58;5.70;;;3.55;;
35330;SDS011;21441;52.190;20.910;2023-05-07T00:48:25;4.32;;;3.25;;
35330;SDS011;21441;52.190;20.910;2023-05-07T00:50:53;3.67;;;3.20;;
35330;SDS011;21441;52.190;20.910;2023-05-07T00:53:20;4.22;;;3.05;;
35330;SDS011;21441;52.190;20.910;2023-05-07T00:55:48;5.75;;;3.17;;
35330;SDS011;21441;52.190;20.910;2023-05-07T00:58:16;4.95;;;3.15;;
35330;SDS011;21441;52.190;20.910;2023-05-07T01:00:44;4.68;;;3.10;;
35330;SDS011;21441;52.190;20.910;2023-05-07T01:03:11;6.20;;;3.47;;
35330;SDS011;21441;52.190;20.910;2023-05-07T01:05:38;5.60;;;3.38;;
35330;SDS011;21441;52.190;20.910;2023-05-07T01:08:06;6.60;;;3.58;;
35330;SDS011;21441;52.190;20.910;2023-05-07T01:10:33;5.32;;;3.72;;
35330;SDS011;21441;52.190;20.910;2023-05-07T01:13:00;5.30;;;3.53;;
35330;SDS011;21441;52.190;20.910;2023-05-07T01:15:29;4.90;;;3.50;;
35330;SDS011;21441;52.190;20.910;2023-05-07T01:17:56;5.18;;;3.53;;
35330;SDS011;21441;52.190;20.910;2023-05-07T01:20:25;4.72;;;3.03;;
35330;SDS011;21441;52.190;20.910;2023-05-07T01:22:54;6.47;;;3.80;;
35330;SDS011;21441;52.190;20.910;2023-05-07T01:25:21;4.70;;;2.88;;
35330;SDS011;21441;52.190;20.910;2023-05-07T01:27:49;6.03;;;3.03;;
35330;SDS011;21441;52.190;20.910;2023-05-07T01:30:17;4.22;;;3.33;;
35330;SDS011;21441;52.190;20.910;2023-05-07T01:32:48;3.80;;;3.33;;
35330;SDS011;21441;52.190;20.910;2023-05-07T01:35:19;5.63;;;3.50;;
35330;SDS011;21441;52.190;20.910;2023-05-07T01:37:48;5.30;;;3.40;;
35330;SDS011;21441;52.190;20.910;2023-05-07T01:40:18;3.90;;;3.25;;
35330;SDS011;21441;52.190;20.910;2023-05-07T01:42:45;4.43;;;3.55;;
35330;SDS011;21441;52.190;20.910;2023-05-07T01:45:13;5.75;;;4.00;;
35330;SDS011;21441;52.190;20.910;2023-05-07T01:47:40;6.57;;;2.97;;
35330;SDS011;21441;52.190;20.910;2023-05-07T01:50:09;4.63;;;2.88;;
35330;SDS011;21441;52.190;20.910;2023-05-07T01:52:36;3.95;;;3.00;;
35330;SDS011;21441;52.190;20.910;2023-05-07T01:55:05;4.65;;;3.45;;
35330;SDS011;21441;52.190;20.910;2023-05-07T01:57:34;3.92;;;3.10;;
35330;SDS011;21441;52.190;20.910;2023-05-07T02:00:01;4.93;;;2.80;;
35330;SDS011;21441;52.190;20.910;2023-05-07T02:02:31;4.15;;;3.05;;
35330;SDS011;21441;52.190;20.910;2023-05-07T02:04:59;4.78;;;3.15;;
35330;SDS011;21441;52.190;20.910;2023-05-07T02:07:26;4.22;;;3.13;;
35330;SDS011;21441;52.190;20.910;2023-05-07T02:09:54;4.13;;;3.03;;
35330;SDS011;21441;52.190;20.910;2023-05-07T02:12:21;3.75;;;2.95;;
35330;SDS011;21441;52.190;20.910;2023-05-07T02:14:50;5.88;;;3.65;;
35330;SDS011;21441;52.190;20.910;2023-05-07T02:17:18;4.60;;;3.28;;
35330;SDS011;21441;52.190;20.910;2023-05-07T02:19:45;3.60;;;2.67;;
35330;SDS011;21441;52.190;20.910;2023-05-07T02:22:12;4.70;;;3.42;;
35330;SDS011;21441;52.190;20.910;2023-05-07T02:24:39;5.43;;;2.97;;
35330;SDS011;21441;52.190;20.910;2023-05-07T02:27:06;3.83;;;2.83;;
35330;SDS011;21441;52.190;20.910;2023-05-07T02:29:33;4.28;;;3.17;;
35330;SDS011;21441;52.190;20.910;2023-05-07T02:32:02;3.97;;;3.20;;
35330;SDS011;21441;52.190;20.910;2023-05-07T02:34:29;3.38;;;3.03;;
35330;SDS011;21441;52.190;20.910;2023-05-07T02:36:56;5.10;;;3.47;;
35330;SDS011;21441;52.190;20.910;2023-05-07T02:39:23;3.90;;;2.95;;
35330;SDS011;21441;52.190;20.910;2023-05-07T02:41:50;4.18;;;2.95;;
35330;SDS011;21441;52.190;20.910;2023-05-07T02:44:17;3.30;;;2.67;;
35330;SDS011;21441;52.190;20.910;2023-05-07T02:46:44;4.40;;;2.92;;
35330;SDS011;21441;52.190;20.910;2023-05-07T02:49:13;3.50;;;2.97;;
35330;SDS011;21441;52.190;20.910;2023-05-07T02:51:42;4.35;;;3.03;;
35330;SDS011;21441;52.190;20.910;2023-05-07T02:54:09;3.20;;;2.40;;
35330;SDS011;21441;52.190;20.910;2023-05-07T02:56:36;3.90;;;3.13;;
35330;SDS011;21441;52.190;20.910;2023-05-07T02:59:03;4.72;;;2.70;;
35330;SDS011;21441;52.190;20.910;2023-05-07T03:01:30;3.13;;;2.40;;
35330;SDS011;21441;52.190;20.910;2023-05-07T03:03:57;4.68;;;2.85;;
35330;SDS011;21441;52.190;20.910;2023-05-07T03:06:25;4.00;;;2.92;;
35330;SDS011;21441;52.190;20.910;2023-05-07T03:08:53;3.72;;;2.78;;
35330;SDS011;21441;52.190;20.910;2023-05-07T03:11:20;3.35;;;2.70;;
35330;SDS011;21441;52.190;20.910;2023-05-07T03:13:47;5.43;;;2.95;;
35330;SDS011;21441;52.190;20.910;2023-05-07T03:16:15;3.60;;;2.70;;
35330;SDS011;21441;52.190;20.910;2023-05-07T03:18:42;3.72;;;2.88;;
35330;SDS011;21441;52.190;20.910;2023-05-07T03:21:09;3.78;;;2.90;;
35330;SDS011;21441;52.190;20.910;2023-05-07T03:23:38;4.38;;;2.67;;
35330;SDS011;21441;52.190;20.910;2023-05-07T03:26:05;4.90;;;2.20;;
35330;SDS011;21441;52.190;20.910;2023-05-07T03:28:32;2.72;;;2.20;;
35330;SDS011;21441;52.190;20.910;2023-05-07T03:31:00;3.30;;;2.45;;
35330;SDS011;21441;52.190;20.910;2023-05-07T03:33:27;3.63;;;2.47;;
35330;SDS011;21441;52.190;20.910;2023-05-07T03:35:54;4.22;;;2.50;;
35330;SDS011;21441;52.190;20.910;2023-05-07T03:38:22;3.92;;;2.65;;
35330;SDS011;21441;52.190;20.910;2023-05-07T03:40:50;4.03;;;2.45;;
35330;SDS011;21441;52.190;20.910;2023-05-07T03:43:17;5.35;;;2.90;;
35330;SDS011;21441;52.190;20.910;2023-05-07T03:45:44;3.13;;;2.50;;
35330;SDS011;21441;52.190;20.910;2023-05-07T03:48:12;5.65;;;2.53;;
35330;SDS011;21441;52.190;20.910;2023-05-07T03:50:38;4.20;;;3.15;;
35330;SDS011;21441;52.190;20.910;2023-05-07T03:53:06;3.63;;;3.00;;
35330;SDS011;21441;52.190;20.910;2023-05-07T03:55:33;3.88;;;2.30;;
35330;SDS011;21441;52.190;20.910;2023-05-07T03:58:02;3.95;;;2.80;;
35330;SDS011;21441;52.190;20.910;2023-05-07T04:00:29;6.00;;;3.08;;
35330;SDS011;21441;52.190;20.910;2023-05-07T04:02:59;4.00;;;2.13;;
35330;SDS011;21441;52.190;20.910;2023-05-07T04:05:26;3.53;;;2.60;;
35330;SDS011;21441;52.190;20.910;2023-05-07T04:07:53;3.25;;;2.95;;
35330;SDS011;21441;52.190;20.910;2023-05-07T04:10:20;4.78;;;2.83;;
35330;SDS011;21441;52.190;20.910;2023-05-07T04:12:47;3.10;;;2.70;;
35330;SDS011;21441;52.190;20.910;2023-05-07T04:15:16;3.70;;;2.65;;
35330;SDS011;21441;52.190;20.910;2023-05-07T04:17:43;3.45;;;2.92;;
35330;SDS011;21441;52.190;20.910;2023-05-07T04:20:14;3.75;;;2.25;;
35330;SDS011;21441;52.190;20.910;2023-05-07T04:22:43;4.22;;;2.47;;
35330;SDS011;21441;52.190;20.910;2023-05-07T04:25:10;3.28;;;2.63;;
35330;SDS011;21441;52.190;20.910;2023-05-07T04:27:37;3.67;;;2.55;;
35330;SDS011;21441;52.190;20.910;2023-05-07T04:30:04;2.75;;;2.30;;
35330;SDS011;21441;52.190;20.910;2023-05-07T04:32:34;3.70;;;2.75;;
35330;SDS011;21441;52.190;20.910;2023-05-07T04:35:01;3.72;;;3.17;;
35330;SDS011;21441;52.190;20.910;2023-05-07T04:37:29;3.08;;;2.30;;
35330;SDS011;21441;52.190;20.910;2023-05-07T04:39:58;4.57;;;2.85;;
35330;SDS011;21441;52.190;20.910;2023-05-07T04:42:25;3.28;;;2.33;;
35330;SDS011;21441;52.190;20.910;2023-05-07T04:44:53;3.47;;;2.60;;
35330;SDS011;21441;52.190;20.910;2023-05-07T04:47:20;3.58;;;2.55;;
35330;SDS011;21441;52.190;20.910;2023-05-07T04:49:48;4.13;;;2.38;;
35330;SDS011;21441;52.190;20.910;2023-05-07T04:52:16;3.80;;;2.55;;
35330;SDS011;21441;52.190;20.910;2023-05-07T04:54:43;3.17;;;2.50;;
35330;SDS011;21441;52.190;20.910;2023-05-07T04:57:10;3.60;;;2.70;;
35330;SDS011;21441;52.190;20.910;2023-05-07T04:59:37;4.70;;;2.45;;
35330;SDS011;21441;52.190;20.910;2023-05-07T05:02:04;3.38;;;2.42;;
35330;SDS011;21441;52.190;20.910;2023-05-07T05:04:31;3.22;;;2.05;;
35330;SDS011;21441;52.190;20.910;2023-05-07T05:07:00;3.88;;;2.70;;
35330;SDS011;21441;52.190;20.910;2023-05-07T05:09:27;3.38;;;2.50;;
35330;SDS011;21441;52.190;20.910;2023-05-07T05:11:55;2.42;;;1.90;;
35330;SDS011;21441;52.190;20.910;2023-05-07T05:14:22;3.53;;;2.70;;
35330;SDS011;21441;52.190;20.910;2023-05-07T05:16:49;2.85;;;2.55;;
35330;SDS011;21441;52.190;20.910;2023-05-07T05:19:16;4.50;;;2.70;;
35330;SDS011;21441;52.190;20.910;2023-05-07T05:21:43;2.63;;;2.22;;
35330;SDS011;21441;52.190;20.910;2023-05-07T05:24:11;5.70;;;2.85;;
35330;SDS011;21441;52.190;20.910;2023-05-07T05:26:39;4.40;;;2.88;;
35330;SDS011;21441;52.190;20.910;2023-05-07T05:29:06;2.85;;;2.65;;
35330;SDS011;21441;52.190;20.910;2023-05-07T05:31:33;4.18;;;1.98;;
35330;SDS011;21441;52.190;20.910;2023-05-07T05:34:00;3.65;;;2.42;;
35330;SDS011;21441;52.190;20.910;2023-05-07T05:36:28;2.47;;;1.95;;
35330;SDS011;21441;52.190;20.910;2023-05-07T05:38:55;2.88;;;2.28;;
35330;SDS011;21441;52.190;20.910;2023-05-07T05:41:24;1.90;;;1.70;;
35330;SDS011;21441;52.190;20.910;2023-05-07T05:43:51;3.05;;;2.22;;
35330;SDS011;21441;52.190;20.910;2023-05-07T05:46:19;3.05;;;2.22;;
35330;SDS011;21441;52.190;20.910;2023-05-07T05:48:46;2.97;;;2.10;;
35330;SDS011;21441;52.190;20.910;2023-05-07T05:51:13;2.70;;;1.92;;
35330;SDS011;21441;52.190;20.910;2023-05-07T05:53:40;2.35;;;1.80;;
35330;SDS011;21441;52.190;20.910;2023-05-07T05:56:07;2.25;;;2.03;;
35330;SDS011;21441;52.190;20.910;2023-05-07T05:58:35;2.13;;;1.73;;
35330;SDS011;21441;52.190;20.910;2023-05-07T06:01:02;2.10;;;1.90;;
35330;SDS011;21441;52.190;20.910;2023-05-07T06:03:30;2.78;;;2.58;;
35330;SDS011;21441;52.190;20.910;2023-05-07T06:05:59;3.25;;;1.98;;
35330;SDS011;21441;52.190;20.910;2023-05-07T06:08:28;3.38;;;2.28;;
35330;SDS011;21441;52.190;20.910;2023-05-07T06:10:56;2.40;;;2.00;;
35330;SDS011;21441;52.190;20.910;2023-05-07T06:13:23;2.88;;;1.50;;
35330;SDS011;21441;52.190;20.910;2023-05-07T06:15:52;3.70;;;1.58;;
35330;SDS011;21441;52.190;20.910;2023-05-07T06:18:19;2.92;;;1.70;;
35330;SDS011;21441;52.190;20.910;2023-05-07T06:20:46;1.70;;;1.60;;
35330;SDS011;21441;52.190;20.910;2023-05-07T06:23:13;3.80;;;1.60;;
35330;SDS011;21441;52.190;20.910;2023-05-07T06:25:41;3.58;;;1.70;;
35330;SDS011;21441;52.190;20.910;2023-05-07T06:28:07;2.05;;;1.58;;
35330;SDS011;21441;52.190;20.910;2023-05-07T06:30:36;3.15;;;1.80;;
35330;SDS011;21441;52.190;20.910;2023-05-07T06:33:05;2.33;;;1.80;;
35330;SDS011;21441;52.190;20.910;2023-05-07T06:35:32;2.95;;;1.95;;
35330;SDS011;21441;52.190;20.910;2023-05-07T06:38:00;3.63;;;1.80;;
35330;SDS011;21441;52.190;20.910;2023-05-07T06:40:27;3.83;;;1.48;;
35330;SDS011;21441;52.190;20.910;2023-05-07T06:42:54;3.05;;;1.83;;
35330;SDS011;21441;52.190;20.910;2023-05-07T06:45:21;1.77;;;1.63;;
35330;SDS011;21441;52.190;20.910;2023-05-07T06:47:49;2.00;;;1.77;;
35330;SDS011;21441;52.190;20.910;2023-05-07T06:50:18;1.52;;;1.35;;
35330;SDS011;21441;52.190;20.910;2023-05-07T06:52:45;3.33;;;1.90;;
35330;SDS011;21441;52.190;20.910;2023-05-07T06:55:12;2.15;;;1.90;;
35330;SDS011;21441;52.190;20.910;2023-05-07T06:57:39;3.65;;;2.00;;
35330;SDS011;21441;52.190;20.910;2023-05-07T07:00:07;4.20;;;2.33;;
35330;SDS011;21441;52.190;20.910;2023-05-07T07:02:36;2.28;;;1.73;;
35330;SDS011;21441;52.190;20.910;2023-05-07T07:05:03;2.00;;;1.50;;
35330;SDS011;21441;52.190;20.910;2023-05-07T07:07:32;1.67;;;1.40;;
35330;SDS011;21441;52.190;20.910;2023-05-07T07:10:00;2.00;;;1.80;;
35330;SDS011;21441;52.190;20.910;2023-05-07T07:12:27;2.70;;;2.28;;
35330;SDS011;21441;52.190;20.910;2023-05-07T07:14:55;2.55;;;1.77;;
35330;SDS011;21441;52.190;20.910;2023-05-07T07:17:22;2.10;;;1.70;;
35330;SDS011;21441;52.190;20.910;2023-05-07T07:19:49;2.35;;;1.70;;
35330;SDS011;21441;52.190;20.910;2023-05-07T07:22:16;2.17;;;1.73;;
35330;SDS011;21441;52.190;20.910;2023-05-07T07:24:45;2.05;;;1.70;;
35330;SDS011;21441;52.190;20.910;2023-05-07T07:27:12;2.55;;;1.92;;
35330;SDS011;21441;52.190;20.910;2023-05-07T07:29:39;3.08;;;1.92;;
35330;SDS011;21441;52.190;20.910;2023-05-07T07:32:06;2.40;;;1.77;;
35330;SDS011;21441;52.190;20.910;2023-05-07T07:34:33;1.75;;;1.50;;
35330;SDS011;21441;52.190;20.910;2023-05-07T07:37:00;4.07;;;1.80;;
35330;SDS011;21441;52.190;20.910;2023-05-07T07:41:59;2.47;;;1.75;;
35330;SDS011;21441;52.190;20.910;2023-05-07T07:44:26;2.05;;;1.58;;
35330;SDS011;21441;52.190;20.910;2023-05-07T07:46:53;2.70;;;1.55;;
35330;SDS011;21441;52.190;20.910;2023-05-07T07:49:21;1.90;;;1.60;;
35330;SDS011;21441;52.190;20.910;2023-05-07T07:51:48;2.45;;;1.70;;
35330;SDS011;21441;52.190;20.910;2023-05-07T07:54:15;2.50;;;1.83;;
35330;SDS011;21441;52.190;20.910;2023-05-07T07:56:42;2.53;;;1.63;;
35330;SDS011;21441;52.190;20.910;2023-05-07T07:59:10;5.18;;;2.00;;
35330;SDS011;21441;52.190;20.910;2023-05-07T08:01:39;2.30;;;1.75;;
35330;SDS011;21441;52.190;20.910;2023-05-07T08:04:06;2.60;;;1.90;;
35330;SDS011;21441;52.190;20.910;2023-05-07T08:06:33;3.83;;;1.80;;
35330;SDS011;21441;52.190;20.910;2023-05-07T08:09:00;3.95;;;1.42;;
35330;SDS011;21441;52.190;20.910;2023-05-07T08:11:27;1.80;;;1.50;;
35330;SDS011;21441;52.190;20.910;2023-05-07T08:13:55;1.50;;;1.35;;
35330;SDS011;21441;52.190;20.910;2023-05-07T08:16:24;2.05;;;1.73;;
35330;SDS011;21441;52.190;20.910;2023-05-07T08:18:51;2.05;;;1.70;;
35330;SDS011;21441;52.190;20.910;2023-05-07T08:21:18;2.00;;;1.80;;
35330;SDS011;21441;52.190;20.910;2023-05-07T08:23:46;5.03;;;1.63;;
35330;SDS011;21441;52.190;20.910;2023-05-07T08:26:13;2.13;;;1.85;;
35330;SDS011;21441;52.190;20.910;2023-05-07T08:28:40;2.50;;;2.10;;
35330;SDS011;21441;52.190;20.910;2023-05-07T08:31:08;3.58;;;1.98;;
35330;SDS011;21441;52.190;20.910;2023-05-07T08:33:37;1.88;;;1.67;;
35330;SDS011;21441;52.190;20.910;2023-05-07T08:36:04;2.22;;;1.80;;
35330;SDS011;21441;52.190;20.910;2023-05-07T08:38:31;3.28;;;1.70;;
35330;SDS011;21441;52.190;20.910;2023-05-07T08:40:58;2.35;;;1.58;;
35330;SDS011;21441;52.190;20.910;2023-05-07T08:43:26;3.47;;;1.70;;
35330;SDS011;21441;52.190;20.910;2023-05-07T08:45:53;4.10;;;2.00;;
35330;SDS011;21441;52.190;20.910;2023-05-07T08:48:22;2.63;;;1.60;;
35330;SDS011;21441;52.190;20.910;2023-05-07T08:50:53;4.57;;;1.88;;
35330;SDS011;21441;52.190;20.910;2023-05-07T08:53:20;1.70;;;1.58;;
35330;SDS011;21441;52.190;20.910;2023-05-07T08:55:47;2.83;;;1.52;;
35330;SDS011;21441;52.190;20.910;2023-05-07T08:58:15;2.70;;;1.88;;
35330;SDS011;21441;52.190;20.910;2023-05-07T09:00:42;1.60;;;1.27;;
35330;SDS011;21441;52.190;20.910;2023-05-07T09:03:09;2.53;;;1.33;;
35330;SDS011;21441;52.190;20.910;2023-05-07T09:05:37;1.90;;;1.42;;
35330;SDS011;21441;52.190;20.910;2023-05-07T09:08:06;2.85;;;2.17;;
35330;SDS011;21441;52.190;20.910;2023-05-07T09:10:34;2.55;;;1.60;;
35330;SDS011;21441;52.190;20.910;2023-05-07T09:13:02;2.78;;;1.60;;
35330;SDS011;21441;52.190;20.910;2023-05-07T09:15:29;4.22;;;1.80;;
35330;SDS011;21441;52.190;20.910;2023-05-07T09:17:59;3.35;;;1.75;;
35330;SDS011;21441;52.190;20.910;2023-05-07T09:20:27;3.83;;;2.00;;
35330;SDS011;21441;52.190;20.910;2023-05-07T09:22:57;3.92;;;1.65;;
35330;SDS011;21441;52.190;20.910;2023-05-07T09:25:31;2.17;;;1.60;;
35330;SDS011;21441;52.190;20.910;2023-05-07T09:28:00;2.05;;;1.60;;
35330;SDS011;21441;52.190;20.910;2023-05-07T09:30:29;1.70;;;1.33;;
35330;SDS011;21441;52.190;20.910;2023-05-07T09:32:57;2.13;;;1.60;;
35330;SDS011;21441;52.190;20.910;2023-05-07T09:35:25;2.17;;;1.40;;
35330;SDS011;21441;52.190;20.910;2023-05-07T09:37:53;3.00;;;1.88;;
35330;SDS011;21441;52.190;20.910;2023-05-07T09:40:21;3.38;;;1.50;;
35330;SDS011;21441;52.190;20.910;2023-05-07T09:42:50;1.40;;;1.30;;
35330;SDS011;21441;52.190;20.910;2023-05-07T09:45:21;3.75;;;1.65;;
35330;SDS011;21441;52.190;20.910;2023-05-07T09:47:48;2.80;;;1.75;;
35330;SDS011;21441;52.190;20.910;2023-05-07T09:50:19;2.75;;;1.67;;
35330;SDS011;21441;52.190;20.910;2023-05-07T09:52:52;4.95;;;1.42;;
35330;SDS011;21441;52.190;20.910;2023-05-07T09:55:21;5.65;;;1.58;;
35330;SDS011;21441;52.190;20.910;2023-05-07T09:57:51;2.55;;;1.48;;
35330;SDS011;21441;52.190;20.910;2023-05-07T10:00:21;3.85;;;1.92;;
35330;SDS011;21441;52.190;20.910;2023-05-07T10:02:49;5.55;;;2.20;;
35330;SDS011;21441;52.190;20.910;2023-05-07T10:05:18;2.80;;;1.80;;
35330;SDS011;21441;52.190;20.910;2023-05-07T10:07:46;2.72;;;1.85;;
35330;SDS011;21441;52.190;20.910;2023-05-07T10:10:14;2.78;;;1.55;;
35330;SDS011;21441;52.190;20.910;2023-05-07T10:12:42;1.95;;;1.60;;
35330;SDS011;21441;52.190;20.910;2023-05-07T10:15:10;2.85;;;1.92;;
35330;SDS011;21441;52.190;20.910;2023-05-07T10:17:40;2.28;;;1.30;;
35330;SDS011;21441;52.190;20.910;2023-05-07T10:20:08;1.50;;;1.30;;
35330;SDS011;21441;52.190;20.910;2023-05-07T10:22:37;1.52;;;1.33;;
35330;SDS011;21441;52.190;20.910;2023-05-07T10:25:06;1.63;;;1.50;;
35330;SDS011;21441;52.190;20.910;2023-05-07T10:27:41;2.28;;;1.60;;
35330;SDS011;21441;52.190;20.910;2023-05-07T10:30:12;3.38;;;1.40;;
35330;SDS011;21441;52.190;20.910;2023-05-07T10:35:19;1.60;;;1.40;;
35330;SDS011;21441;52.190;20.910;2023-05-07T10:37:49;2.42;;;1.50;;
35330;SDS011;21441;52.190;20.910;2023-05-07T10:40:17;2.47;;;1.38;;
35330;SDS011;21441;52.190;20.910;2023-05-07T10:42:53;3.78;;;1.52;;
35330;SDS011;21441;52.190;20.910;2023-05-07T10:45:23;2.25;;;1.50;;
35330;SDS011;21441;52.190;20.910;2023-05-07T10:48:07;3.05;;;1.42;;
35330;SDS011;21441;52.190;20.910;2023-05-07T10:50:36;2.05;;;1.73;;
35330;SDS011;21441;52.190;20.910;2023-05-07T10:53:20;3.45;;;1.70;;
35330;SDS011;21441;52.190;20.910;2023-05-07T10:55:52;3.83;;;1.48;;
35330;SDS011;21441;52.190;20.910;2023-05-07T10:58:53;1.73;;;1.50;;
35330;SDS011;21441;52.190;20.910;2023-05-07T11:04:19;2.72;;;1.25;;
35330;SDS011;21441;52.190;20.910;2023-05-07T11:12:47;1.35;;;1.20;;
35330;SDS011;21441;52.190;20.910;2023-05-07T11:15:15;3.47;;;1.38;;
35330;SDS011;21441;52.190;20.910;2023-05-07T11:18:02;2.72;;;1.55;;
35330;SDS011;21441;52.190;20.910;2023-05-07T11:20:49;2.00;;;1.60;;
35330;SDS011;21441;52.190;20.910;2023-05-07T11:26:26;1.80;;;1.67;;
35330;SDS011;21441;52.190;20.910;2023-05-07T11:28:54;1.73;;;1.55;;
35330;SDS011;21441;52.190;20.910;2023-05-07T11:31:23;1.98;;;1.45;;
35330;SDS011;21441;52.190;20.910;2023-05-07T11:33:53;1.50;;;1.40;;
35330;SDS011;21441;52.190;20.910;2023-05-07T11:36:22;3.47;;;1.55;;
35330;SDS011;21441;52.190;20.910;2023-05-07T11:38:49;2.50;;;1.60;;
35330;SDS011;21441;52.190;20.910;2023-05-07T11:41:17;1.70;;;1.23;;
35330;SDS011;21441;52.190;20.910;2023-05-07T11:43:58;1.60;;;1.33;;
35330;SDS011;21441;52.190;20.910;2023-05-07T11:46:27;2.50;;;1.95;;
35330;SDS011;21441;52.190;20.910;2023-05-07T11:48:56;2.13;;;1.42;;
35330;SDS011;21441;52.190;20.910;2023-05-07T11:51:24;1.60;;;1.33;;
35330;SDS011;21441;52.190;20.910;2023-05-07T11:53:52;2.53;;;1.40;;
35330;SDS011;21441;52.190;20.910;2023-05-07T11:56:20;2.03;;;1.45;;
35330;SDS011;21441;52.190;20.910;2023-05-07T11:58:47;1.95;;;1.33;;
35330;SDS011;21441;52.190;20.910;2023-05-07T12:01:16;1.67;;;1.20;;
35330;SDS011;21441;52.190;20.910;2023-05-07T12:03:44;2.88;;;1.90;;
35330;SDS011;21441;52.190;20.910;2023-05-07T12:06:14;1.95;;;1.48;;
35330;SDS011;21441;52.190;20.910;2023-05-07T12:08:43;2.17;;;1.60;;
35330;SDS011;21441;52.190;20.910;2023-05-07T12:11:13;1.33;;;1.15;;
35330;SDS011;21441;52.190;20.910;2023-05-07T12:13:42;1.50;;;1.33;;
35330;SDS011;21441;52.190;20.910;2023-05-07T12:16:10;4.38;;;1.67;;
35330;SDS011;21441;52.190;20.910;2023-05-07T12:18:37;3.47;;;1.65;;
35330;SDS011;21441;52.190;20.910;2023-05-07T12:21:05;2.58;;;1.52;;
35330;SDS011;21441;52.190;20.910;2023-05-07T12:23:35;3.30;;;1.33;;
35330;SDS011;21441;52.190;20.910;2023-05-07T12:26:03;1.83;;;1.13;;
35330;SDS011;21441;52.190;20.910;2023-05-07T12:28:31;1.77;;;1.40;;
35330;SDS011;21441;52.190;20.910;2023-05-07T12:31:04;2.03;;;1.30;;
35330;SDS011;21441;52.190;20.910;2023-05-07T12:33:31;1.83;;;1.20;;
35330;SDS011;21441;52.190;20.910;2023-05-07T12:36:02;2.22;;;1.40;;
35330;SDS011;21441;52.190;20.910;2023-05-07T12:38:34;3.33;;;1.35;;
35330;SDS011;21441;52.190;20.910;2023-05-07T12:41:04;3.95;;;1.60;;
35330;SDS011;21441;52.190;20.910;2023-05-07T12:43:32;2.42;;;1.55;;
35330;SDS011;21441;52.190;20.910;2023-05-07T12:46:00;1.95;;;1.33;;
35330;SDS011;21441;52.190;20.910;2023-05-07T12:48:30;2.90;;;1.37;;
35330;SDS011;21441;52.190;20.910;2023-05-07T12:50:58;3.88;;;2.75;;
35330;SDS011;21441;52.190;20.910;2023-05-07T12:53:26;2.05;;;1.33;;
35330;SDS011;21441;52.190;20.910;2023-05-07T12:55:57;3.17;;;1.40;;
35330;SDS011;21441;52.190;20.910;2023-05-07T12:58:25;2.05;;;1.33;;
35330;SDS011;21441;52.190;20.910;2023-05-07T13:00:54;1.75;;;1.15;;
35330;SDS011;21441;52.190;20.910;2023-05-07T13:03:24;4.15;;;1.02;;
35330;SDS011;21441;52.190;20.910;2023-05-07T13:05:52;2.78;;;1.23;;
35330;SDS011;21441;52.190;20.910;2023-05-07T13:08:24;2.67;;;1.25;;
35330;SDS011;21441;52.190;20.910;2023-05-07T13:10:52;1.67;;;1.20;;
35330;SDS011;21441;52.190;20.910;2023-05-07T13:13:21;1.98;;;1.25;;
35330;SDS011;21441;52.190;20.910;2023-05-07T13:15:48;2.13;;;1.08;;
35330;SDS011;21441;52.190;20.910;2023-05-07T13:18:16;2.38;;;1.40;;
35330;SDS011;21441;52.190;20.910;2023-05-07T13:20:43;1.38;;;1.08;;
35330;SDS011;21441;52.190;20.910;2023-05-07T13:23:10;2.38;;;1.20;;
35330;SDS011;21441;52.190;20.910;2023-05-07T13:25:38;2.10;;;1.25;;
35330;SDS011;21441;52.190;20.910;2023-05-07T13:28:05;1.20;;;1.10;;
35330;SDS011;21441;52.190;20.910;2023-05-07T13:30:34;3.17;;;1.13;;
35330;SDS011;21441;52.190;20.910;2023-05-07T13:33:01;1.67;;;1.13;;
35330;SDS011;21441;52.190;20.910;2023-05-07T13:35:28;2.15;;;1.30;;
35330;SDS011;21441;52.190;20.910;2023-05-07T13:37:55;2.13;;;1.33;;
35330;SDS011;21441;52.190;20.910;2023-05-07T13:40:23;2.17;;;1.42;;
35330;SDS011;21441;52.190;20.910;2023-05-07T13:42:50;3.67;;;1.60;;
35330;SDS011;21441;52.190;20.910;2023-05-07T13:45:18;1.83;;;1.40;;
35330;SDS011;21441;52.190;20.910;2023-05-07T13:47:46;3.33;;;1.33;;
35330;SDS011;21441;52.190;20.910;2023-05-07T13:50:15;1.45;;;1.15;;
35330;SDS011;21441;52.190;20.910;2023-05-07T13:52:42;4.60;;;1.88;;
35330;SDS011;21441;52.190;20.910;2023-05-07T13:55:13;3.45;;;0.95;;
35330;SDS011;21441;52.190;20.910;2023-05-07T13:57:40;1.27;;;0.98;;
35330;SDS011;21441;52.190;20.910;2023-05-07T14:00:07;1.70;;;1.10;;
35330;SDS011;21441;52.190;20.910;2023-05-07T14:02:35;1.48;;;1.20;;
35330;SDS011;21441;52.190;20.910;2023-05-07T14:05:04;1.08;;;0.93;;
35330;SDS011;21441;52.190;20.910;2023-05-07T14:07:32;2.17;;;1.48;;
35330;SDS011;21441;52.190;20.910;2023-05-07T14:09:59;1.77;;;0.98;;
35330;SDS011;21441;52.190;20.910;2023-05-07T14:12:26;3.20;;;1.35;;
35330;SDS011;21441;52.190;20.910;2023-05-07T14:14:54;2.22;;;1.42;;
35330;SDS011;21441;52.190;20.910;2023-05-07T14:17:21;1.63;;;1.08;;
35330;SDS011;21441;52.190;20.910;2023-05-07T14:19:50;2.85;;;1.38;;
35330;SDS011;21441;52.190;20.910;2023-05-07T14:22:20;2.53;;;1.35;;
35330;SDS011;21441;52.190;20.910;2023-05-07T14:24:48;2.88;;;1.50;;
35330;SDS011;21441;52.190;20.910;2023-05-07T14:27:16;1.33;;;1.02;;
35330;SDS011;21441;52.190;20.910;2023-05-07T14:29:43;2.05;;;1.50;;
35330;SDS011;21441;52.190;20.910;2023-05-07T14:32:10;0.90;;;0.73;;
35330;SDS011;21441;52.190;20.910;2023-05-07T14:34:38;2.28;;;1.27;;
35330;SDS011;21441;52.190;20.910;2023-05-07T14:37:05;2.22;;;1.10;;
35330;SDS011;21441;52.190;20.910;2023-05-07T14:39:34;2.25;;;1.20;;
35330;SDS011;21441;52.190;20.910;2023-05-07T14:42:01;1.52;;;1.05;;
35330;SDS011;21441;52.190;20.910;2023-05-07T14:44:28;1.88;;;1.10;;
35330;SDS011;21441;52.190;20.910;2023-05-07T14:46:56;1.20;;;1.08;;
35330;SDS011;21441;52.190;20.910;2023-05-07T14:49:24;3.00;;;0.82;;
35330;SDS011;21441;52.190;20.910;2023-05-07T14:51:51;1.40;;;1.02;;
35330;SDS011;21441;52.190;20.910;2023-05-07T14:54:18;1.58;;;1.40;;
35330;SDS011;21441;52.190;20.910;2023-05-07T14:56:47;2.13;;;1.27;;